Time;durP1;ratioP1;P1;durP2;ratioP2;P2;SDS_P1;SDS_P2;PMS_P1;PMS_P2;Temp;Humidity;BMP_temperature;BMP_pressure;BME280_temperature;BME280_humidity;BME280_pressure;Samples;Min_cycle;Max_cycle;Signal;HPM_P1;HPM_P2
2022/07/18 18:12:08;;;;;;;;;;;36.50;51.10;36.10;99577.00;;;;211048;29;88104;-85
2022/07/18 18:12:20;;;;;;;;;;;36.50;51.10;36.10;99566.00;;;;332027;29;97051;-85
2022/07/18 18:12:32;;;;;;;;;;;36.40;51.00;36.10;99572.00;;;;331996;29;83539;-84
2022/07/18 18:12:44;;;;;;;;;;;36.40;51.00;36.00;99572.00;;;;331898;29;95849;-84
2022/07/18 18:12:55;;;;;;;;;;;36.40;51.40;36.10;99563.00;;;;331232;29;83562;-85
2022/07/18 18:13:07;;;;;;;;;;;36.40;51.40;36.10;99571.00;;;;330785;29;93941;-85
2022/07/18 18:13:19;;;;;;;;;;;36.40;51.40;36.00;99574.00;;;;333763;29;83396;-85
2022/07/18 18:13:31;;;;;;;;;;;36.40;51.40;36.00;99569.00;;;;329479;29;97681;-85
2022/07/18 18:13:43;;;;;;;;;;;36.40;51.50;35.90;99571.00;;;;327856;29;86675;-85
2022/07/18 18:13:54;;;;;;;;;;;36.40;51.70;36.00;99574.00;;;;330403;29;97439;-85
2022/07/18 18:14:06;;;;;;;;;;;36.40;51.80;36.10;99573.00;;;;330582;29;82621;-84
2022/07/18 18:14:20;;;;;;;;;;;36.40;52.00;36.00;99575.00;;;;329292;29;95133;-85
2022/07/18 18:14:33;;;;;;;;;;;36.40;52.10;36.00;99573.00;;;;329647;29;82564;-84
2022/07/18 18:14:45;;;;;;;;;;;36.40;52.20;36.00;99573.00;;;;329852;29;96556;-85
2022/07/18 18:14:56;;;;;;;;;;;36.40;52.30;36.00;99575.00;;;;329804;29;83327;-84
2022/07/18 18:15:09;;;;;;;;;;;36.40;52.30;36.00;99576.00;;;;329128;29;93994;-85
2022/07/18 18:15:21;;;;;;;;;;;36.40;52.30;35.80;99580.00;;;;331378;29;83431;-85
2022/07/18 18:15:33;;;;;;;;;;;36.30;52.20;35.90;99578.00;;;;328181;29;93143;-85
2022/07/18 18:15:44;;;;;;;;;;;36.30;52.40;35.90;99576.00;;;;328658;29;83588;-85
2022/07/18 18:15:56;;;;;;;;;;;36.30;52.50;35.80;99584.00;;;;326995;29;94280;-85
2022/07/18 18:16:08;;;;;;;;;;;36.30;52.40;35.80;99577.00;;;;330043;29;83450;-85
2022/07/18 18:16:20;;;;;;;;;;;36.30;52.20;35.80;99580.00;;;;329281;29;96008;-85
2022/07/18 18:16:32;;;;;;;;;;;36.30;52.40;35.80;99579.00;;;;328481;29;83542;-85
2022/07/18 18:16:45;;;;;;;;;;;36.30;52.80;35.70;99572.00;;;;327673;29;92089;-85
2022/07/18 18:16:59;;;;;;;;;;;36.20;52.30;35.80;99587.00;;;;329027;29;83391;-85
2022/07/18 18:17:14;;;;;;;;;;;36.20;52.10;35.80;99587.00;;;;327963;29;94650;-84
2022/07/18 18:17:32;;;;;;;;;;;36.20;52.20;35.80;99581.00;;;;331286;29;83355;-85
2022/07/18 18:17:43;;;;;;;;;;;36.20;52.30;35.90;99572.00;;;;327990;29;96230;-85
2022/07/18 18:17:55;;;;;;;;;;;36.20;52.20;35.90;99584.00;;;;327557;29;83559;-85
2022/07/18 18:18:07;;;;;;;;;;;36.20;52.40;35.80;99576.00;;;;328884;29;94568;-85
2022/07/18 18:18:19;;;;;;;;;;;36.20;52.50;35.90;99581.00;;;;331741;29;82665;-85
2022/07/18 18:18:32;;;;;;;;;;;36.20;52.30;35.90;99580.00;;;;331256;29;93687;-85
2022/07/18 18:18:44;;;;;;;;;;;36.20;52.20;35.90;99587.00;;;;329814;29;84108;-85
2022/07/18 18:18:55;;;;;;;;;;;36.20;52.30;35.80;99582.00;;;;329336;29;93675;-85
2022/07/18 18:19:07;;;;;;;;;;;36.20;52.50;35.80;99577.00;;;;331418;29;83609;-85
2022/07/18 18:19:19;;;;;;;;;;;36.20;52.80;35.80;99582.00;;;;328232;29;94416;-85
2022/07/18 18:19:32;;;;;;;;;;;36.20;52.70;35.70;99583.00;;;;330241;29;83606;-85
2022/07/18 18:19:44;;;;;;;;;;;36.20;52.60;35.50;99581.00;;;;327382;29;93923;-85
2022/07/18 18:19:56;;;;;;;;;;;36.10;52.30;35.60;99587.00;;;;327637;29;83567;-85
2022/07/18 18:20:08;;;;;;;;;;;36.10;52.20;35.70;99577.00;;;;328041;29;96968;-85
2022/07/18 18:20:20;;;;;;;;;;;36.10;52.30;35.60;99574.00;;;;328821;29;82479;-84
2022/07/18 18:20:32;;;;;;;;;;;36.10;52.40;35.60;99577.00;;;;329908;29;94594;-85
2022/07/18 18:20:44;;;;;;;;;;;36.10;52.50;35.60;99573.00;;;;331211;29;83642;-85
2022/07/18 18:20:56;;;;;;;;;;;36.00;52.60;35.60;99578.00;;;;326740;29;93637;-85
2022/07/18 18:21:08;;;;;;;;;;;36.00;52.60;35.60;99583.00;;;;327991;29;83536;-85
2022/07/18 18:21:20;;;;;;;;;;;36.00;52.50;35.40;99585.00;;;;326227;29;93253;-85
2022/07/18 18:21:31;;;;;;;;;;;36.00;52.60;35.40;99581.00;;;;327955;29;83523;-86
2022/07/18 18:21:44;;;;;;;;;;;36.00;52.70;35.40;99577.00;;;;331756;29;94725;-85
2022/07/18 18:21:56;;;;;;;;;;;35.90;52.70;35.50;99584.00;;;;328878;29;84095;-85
2022/07/18 18:22:07;;;;;;;;;;;35.90;52.60;35.50;99584.00;;;;330584;29;95712;-85
2022/07/18 18:22:19;;;;;;;;;;;35.90;52.60;35.60;99583.00;;;;332618;29;83553;-85
2022/07/18 18:22:31;;;;;;;;;;;35.90;52.50;35.60;99582.00;;;;331520;29;94478;-85
2022/07/18 18:22:43;;;;;;;;;;;35.90;52.80;35.60;99585.00;;;;330685;29;82604;-86
2022/07/18 18:23:02;;;;;;;;;;;35.90;52.80;35.50;99582.00;;;;329183;29;96635;-85
2022/07/18 18:23:14;;;;;;;;;;;35.90;52.90;35.60;99587.00;;;;331427;29;83546;-85
2022/07/18 18:23:26;;;;;;;;;;;35.90;52.90;35.60;99580.00;;;;330802;29;93101;-85
2022/07/18 18:23:38;;;;;;;;;;;35.90;52.80;35.60;99584.00;;;;332562;29;83521;-85
2022/07/18 18:23:50;;;;;;;;;;;35.90;52.70;35.60;99590.00;;;;329332;29;94061;-85
2022/07/18 18:24:02;;;;;;;;;;;35.90;52.90;35.60;99583.00;;;;328897;29;83729;-85
2022/07/18 18:24:14;;;;;;;;;;;35.90;53.60;35.60;99587.00;;;;327416;29;94877;-85
2022/07/18 18:24:26;;;;;;;;;;;35.90;53.20;35.50;99589.00;;;;331513;29;83196;-85
2022/07/18 18:24:38;;;;;;;;;;;35.90;53.30;35.40;99583.00;;;;328969;29;94166;-85
2022/07/18 18:24:51;;;;;;;;;;;35.80;52.80;35.30;99588.00;;;;332701;29;83619;-85
2022/07/18 18:25:03;;;;;;;;;;;35.80;52.90;35.30;99591.00;;;;329357;29;95003;-85
2022/07/18 18:25:15;;;;;;;;;;;35.80;52.90;35.30;99583.00;;;;327731;29;83390;-86
2022/07/18 18:25:26;;;;;;;;;;;35.80;52.80;35.40;99583.00;;;;327974;29;94632;-85
2022/07/18 18:25:38;;;;;;;;;;;35.80;52.80;35.50;99586.00;;;;330430;29;83678;-85
2022/07/18 18:25:52;;;;;;;;;;;35.70;52.80;35.50;99585.00;;;;327847;29;97520;-85
2022/07/18 18:26:05;;;;;;;;;;;35.70;52.80;35.30;99585.00;;;;330297;29;82409;-85
2022/07/18 18:26:16;;;;;;;;;;;35.70;52.70;35.30;99590.00;;;;329423;29;93463;-84
2022/07/18 18:26:28;;;;;;;;;;;35.70;52.60;35.40;99580.00;;;;330183;29;83605;-85
2022/07/18 18:26:40;;;;;;;;;;;35.70;52.60;35.40;99592.00;;;;328007;29;97311;-85
2022/07/18 18:26:52;;;;;;;;;;;35.70;52.60;35.50;99584.00;;;;328956;29;83548;-85
2022/07/18 18:27:04;;;;;;;;;;;35.70;52.70;35.40;99588.00;;;;328749;29;94795;-85
2022/07/18 18:27:16;;;;;;;;;;;35.70;52.90;35.40;99584.00;;;;328819;29;83521;-85
2022/07/18 18:27:27;;;;;;;;;;;35.70;53.10;35.30;99580.00;;;;326985;29;94530;-85
2022/07/18 18:27:41;;;;;;;;;;;35.70;53.10;35.30;99580.00;;;;327491;29;83562;-85
2022/07/18 18:27:53;;;;;;;;;;;35.70;52.90;35.30;99584.00;;;;329138;29;94677;-85
2022/07/18 18:28:05;;;;;;;;;;;35.60;52.80;35.30;99587.00;;;;328563;29;83291;-85
2022/07/18 18:28:17;;;;;;;;;;;35.60;53.20;35.30;99587.00;;;;326816;29;96057;-85
2022/07/18 18:28:29;;;;;;;;;;;35.70;53.30;35.40;99589.00;;;;328824;29;82520;-85
2022/07/18 18:28:40;;;;;;;;;;;35.70;53.20;35.30;99586.00;;;;329311;29;97479;-85
2022/07/18 18:28:52;;;;;;;;;;;35.70;53.30;35.30;99594.00;;;;330067;29;83677;-85
2022/07/18 18:29:04;;;;;;;;;;;35.60;53.20;35.40;99591.00;;;;330629;29;94252;-85
2022/07/18 18:29:16;;;;;;;;;;;35.60;53.10;35.30;99592.00;;;;330105;29;82618;-85
2022/07/18 18:29:28;;;;;;;;;;;35.70;53.10;35.30;99583.00;;;;329528;29;94390;-85
2022/07/18 18:29:42;;;;;;;;;;;35.60;53.30;35.30;99581.00;;;;332566;29;82671;-85
2022/07/18 18:29:54;;;;;;;;;;;35.70;53.40;35.20;99585.00;;;;330642;29;94256;-85
2022/07/18 18:30:06;;;;;;;;;;;35.60;53.40;35.30;99585.00;;;;329962;29;87673;-85
2022/07/18 18:30:18;;;;;;;;;;;35.60;53.20;35.30;99587.00;;;;327957;29;94076;-85
2022/07/18 18:30:30;;;;;;;;;;;35.60;53.20;35.40;99588.00;;;;328819;29;83482;-85
2022/07/18 18:30:42;;;;;;;;;;;35.60;53.20;35.30;99590.00;;;;326766;29;93769;-85
2022/07/18 18:30:54;;;;;;;;;;;35.60;53.10;35.30;99586.00;;;;330168;29;82693;-85
2022/07/18 18:31:06;;;;;;;;;;;35.60;53.30;35.30;99591.00;;;;329291;29;96630;-85
2022/07/18 18:31:18;;;;;;;;;;;35.60;53.30;35.30;99589.00;;;;331997;29;83492;-84
2022/07/18 18:31:30;;;;;;;;;;;35.60;53.20;35.40;99586.00;;;;330404;29;96208;-85
2022/07/18 18:31:43;;;;;;;;;;;35.60;53.10;35.30;99592.00;;;;331043;29;82658;-85
2022/07/18 18:31:55;;;;;;;;;;;35.60;53.20;35.40;99590.00;;;;330410;29;93683;-85
2022/07/18 18:32:07;;;;;;;;;;;35.60;53.10;35.40;99586.00;;;;328332;29;82538;-84
2022/07/18 18:32:18;;;;;;;;;;;35.50;53.10;35.40;99588.00;;;;328965;29;97708;-85
2022/07/18 18:32:32;;;;;;;;;;;35.50;53.20;35.40;99590.00;;;;332341;29;83110;-85
2022/07/18 18:32:44;;;;;;;;;;;35.50;53.20;35.20;99591.00;;;;327435;29;92359;-84
2022/07/18 18:32:56;;;;;;;;;;;35.50;53.60;35.30;99586.00;;;;327206;29;82462;-85
2022/07/18 18:33:08;;;;;;;;;;;35.50;53.40;35.30;99597.00;;;;329179;29;92052;-85
2022/07/18 18:33:19;;;;;;;;;;;35.60;53.30;35.20;99586.00;;;;331065;29;82523;-85
2022/07/18 18:33:31;;;;;;;;;;;35.50;53.40;35.20;99589.00;;;;328268;29;94271;-85
2022/07/18 18:33:43;;;;;;;;;;;35.50;53.50;35.20;99585.00;;;;330610;29;83530;-86
2022/07/18 18:33:55;;;;;;;;;;;35.50;53.30;35.10;99593.00;;;;330162;29;93695;-85
2022/07/18 18:34:07;;;;;;;;;;;35.50;53.20;35.10;99589.00;;;;332411;29;82509;-85
2022/07/18 18:34:18;;;;;;;;;;;35.50;53.40;35.00;99587.00;;;;331799;29;92736;-85
2022/07/18 18:34:30;;;;;;;;;;;35.50;53.30;35.00;99593.00;;;;329883;29;82711;-85
2022/07/18 18:34:43;;;;;;;;;;;35.50;53.20;35.10;99597.00;;;;329823;29;94196;-85
2022/07/18 18:34:54;;;;;;;;;;;35.50;53.20;35.10;99590.00;;;;332070;29;83403;-86
2022/07/18 18:35:07;;;;;;;;;;;35.50;53.20;35.20;99591.00;;;;327460;29;94076;-84
2022/07/18 18:35:19;;;;;;;;;;;35.50;53.30;35.20;99589.00;;;;328749;29;83498;-85
2022/07/18 18:35:31;;;;;;;;;;;35.40;53.20;35.00;99586.00;;;;328784;29;96639;-85
2022/07/18 18:35:42;;;;;;;;;;;35.50;53.50;34.90;99591.00;;;;330314;29;82543;-85
2022/07/18 18:35:54;;;;;;;;;;;35.40;53.20;35.00;99588.00;;;;329044;29;96567;-85
2022/07/18 18:36:09;;;;;;;;;;;35.40;53.20;34.90;99590.00;;;;329309;29;82676;-85
2022/07/18 18:36:54;;;;;;;;;;;35.40;53.40;34.80;99592.00;;;;328187;29;93220;-85
2022/07/18 18:36:55;;;;;;;;;;;35.40;53.20;34.80;99592.00;;;;330191;29;82801;-85
2022/07/18 18:37:11;;;;;;;;;;;35.30;53.40;34.70;99590.00;;;;329389;29;93313;-85
2022/07/18 18:37:23;;;;;;;;;;;35.30;53.30;34.70;99593.00;;;;330131;29;83394;-85
2022/07/18 18:37:35;;;;;;;;;;;35.30;53.40;34.80;99591.00;;;;326515;29;93811;-85
2022/07/18 18:37:46;;;;;;;;;;;35.30;53.30;34.90;99595.00;;;;328587;29;83564;-85
2022/07/18 18:37:58;;;;;;;;;;;35.30;53.30;35.00;99595.00;;;;330554;29;97261;-85
2022/07/18 18:38:10;;;;;;;;;;;35.30;53.40;35.00;99596.00;;;;331181;29;83561;-85
2022/07/18 18:38:22;;;;;;;;;;;35.30;53.40;34.90;99592.00;;;;330370;29;94774;-85
2022/07/18 18:38:35;;;;;;;;;;;35.20;53.60;34.90;99598.00;;;;331486;29;83334;-85
2022/07/18 18:38:46;;;;;;;;;;;35.30;53.60;35.00;99598.00;;;;328169;29;95884;-84
2022/07/18 18:38:58;;;;;;;;;;;35.20;53.50;34.90;99589.00;;;;327247;29;82635;-85
2022/07/18 18:39:10;;;;;;;;;;;35.30;53.60;35.00;99595.00;;;;327707;29;94086;-85
2022/07/18 18:39:23;;;;;;;;;;;35.30;53.40;35.00;99601.00;;;;329935;29;82507;-85
2022/07/18 18:39:35;;;;;;;;;;;35.30;53.60;35.00;99593.00;;;;331943;29;93718;-85
2022/07/18 18:39:47;;;;;;;;;;;35.20;53.50;35.00;99598.00;;;;333810;29;83511;-85
2022/07/18 18:40:00;;;;;;;;;;;35.30;53.50;35.00;99597.00;;;;331869;29;93548;-85
2022/07/18 18:40:11;;;;;;;;;;;35.20;54.20;35.00;99597.00;;;;331403;29;82346;-85
2022/07/18 18:40:24;;;;;;;;;;;35.20;53.90;35.00;99593.00;;;;329304;29;97535;-85
2022/07/18 18:40:36;;;;;;;;;;;35.20;53.90;35.00;99593.00;;;;329727;29;83537;-85
2022/07/18 18:40:48;;;;;;;;;;;35.20;53.60;35.00;99590.00;;;;331322;29;94449;-84
2022/07/18 18:41:00;;;;;;;;;;;35.20;53.50;34.90;99597.00;;;;330053;29;83581;-85
2022/07/18 18:41:12;;;;;;;;;;;35.20;53.60;35.00;99597.00;;;;331888;29;96398;-85
2022/07/18 18:41:23;;;;;;;;;;;35.20;53.70;35.00;99596.00;;;;328922;29;83405;-85
2022/07/18 18:41:40;;;;;;;;;;;35.20;53.80;35.10;99600.00;;;;329414;29;93408;-85
2022/07/18 18:41:52;;;;;;;;;;;35.20;53.70;35.00;99595.00;;;;328822;29;83607;-85
2022/07/18 18:42:05;;;;;;;;;;;35.20;53.70;35.00;99590.00;;;;329798;29;96338;-85
2022/07/18 18:42:17;;;;;;;;;;;35.20;53.60;35.00;99592.00;;;;331185;29;82630;-85
2022/07/18 18:42:29;;;;;;;;;;;35.20;53.60;34.90;99593.00;;;;328626;29;96198;-85
2022/07/18 18:42:42;;;;;;;;;;;35.20;53.60;35.00;99586.00;;;;331325;29;83441;-85
2022/07/18 18:42:54;;;;;;;;;;;35.20;53.70;34.80;99594.00;;;;331389;29;96758;-86
2022/07/18 18:43:06;;;;;;;;;;;35.10;53.60;34.80;99597.00;;;;328800;29;83533;-85
2022/07/18 18:43:17;;;;;;;;;;;35.20;53.60;34.90;99595.00;;;;330408;29;97260;-85
2022/07/18 18:43:29;;;;;;;;;;;35.10;53.50;34.80;99600.00;;;;331081;29;83389;-85
2022/07/18 18:43:41;;;;;;;;;;;35.20;53.80;34.80;99589.00;;;;330471;29;93815;-86
2022/07/18 18:43:53;;;;;;;;;;;35.20;53.70;34.90;99593.00;;;;329972;29;83578;-85
2022/07/18 18:44:05;;;;;;;;;;;35.10;54.00;34.80;99588.00;;;;330744;29;94505;-85
2022/07/18 18:44:17;;;;;;;;;;;35.10;53.90;34.80;99588.00;;;;331409;29;82505;-85
2022/07/18 18:44:29;;;;;;;;;;;35.10;53.70;34.90;99595.00;;;;333126;29;93094;-85
2022/07/18 18:44:40;;;;;;;;;;;35.10;53.70;34.90;99597.00;;;;333887;29;83385;-85
2022/07/18 18:44:52;;;;;;;;;;;35.10;53.70;35.00;99594.00;;;;331820;29;96457;-85
2022/07/18 18:45:07;;;;;;;;;;;35.10;53.60;35.00;99593.00;;;;331501;29;83619;-85
2022/07/18 18:45:19;;;;;;;;;;;35.10;53.60;35.00;99596.00;;;;330506;29;96700;-85
2022/07/18 18:45:31;;;;;;;;;;;35.10;53.60;34.90;99595.00;;;;331390;29;83548;-85
2022/07/18 18:45:43;;;;;;;;;;;35.10;53.70;34.80;99591.00;;;;330092;29;95605;-85
2022/07/18 18:45:55;;;;;;;;;;;35.10;53.70;34.80;99593.00;;;;331456;29;83504;-85
2022/07/18 18:46:07;;;;;;;;;;;35.10;53.60;34.90;99595.00;;;;329489;29;93038;-85
2022/07/18 18:46:19;;;;;;;;;;;35.10;53.60;34.90;99593.00;;;;331340;29;83482;-85
2022/07/18 18:46:31;;;;;;;;;;;35.10;53.50;34.90;99590.00;;;;331076;29;94251;-85
2022/07/18 18:46:43;;;;;;;;;;;35.10;53.60;35.00;99595.00;;;;328995;29;83477;-85
2022/07/18 18:46:55;;;;;;;;;;;35.10;53.60;34.90;99595.00;;;;330715;29;93268;-85
2022/07/18 18:47:07;;;;;;;;;;;35.10;53.70;34.90;99593.00;;;;331485;29;83523;-85
2022/07/18 18:47:24;;;;;;;;;;;35.00;53.90;34.80;99589.00;;;;329618;29;96668;-86
2022/07/18 18:47:36;;;;;;;;;;;35.10;54.00;34.80;99584.00;;;;331480;29;83310;-85
2022/07/18 18:47:48;;;;;;;;;;;35.00;54.00;34.80;99593.00;;;;332935;29;93295;-85
2022/07/18 18:48:00;;;;;;;;;;;35.00;54.00;34.90;99586.00;;;;331213;29;82593;-84
2022/07/18 18:48:11;;;;;;;;;;;35.10;54.10;34.90;99592.00;;;;330078;29;94513;-86
2022/07/18 18:48:23;;;;;;;;;;;35.00;54.10;34.90;99598.00;;;;330048;29;83527;-85
2022/07/18 18:48:37;;;;;;;;;;;35.10;54.50;35.00;99592.00;;;;329543;29;94463;-86
2022/07/18 18:48:49;;;;;;;;;;;35.10;54.20;34.90;99592.00;;;;331281;29;83531;-85
2022/07/18 18:49:01;;;;;;;;;;;35.00;53.90;34.90;99601.00;;;;330712;29;94191;-85
2022/07/18 18:49:14;;;;;;;;;;;35.00;54.10;34.80;99590.00;;;;330270;29;83407;-85
2022/07/18 18:49:26;;;;;;;;;;;35.10;54.10;34.80;99589.00;;;;329565;29;96310;-85
2022/07/18 18:49:37;;;;;;;;;;;35.00;54.00;34.80;99591.00;;;;332414;29;83491;-85
2022/07/18 18:49:49;;;;;;;;;;;35.00;54.00;34.80;99589.00;;;;329255;29;93468;-85
2022/07/18 18:50:01;;;;;;;;;;;35.00;54.10;34.80;99589.00;;;;327687;29;83394;-85
2022/07/18 18:50:13;;;;;;;;;;;35.00;54.00;34.80;99587.00;;;;329511;29;92666;-85
2022/07/18 18:50:25;;;;;;;;;;;35.00;54.20;34.70;99593.00;;;;332608;29;83422;-85
2022/07/18 18:50:37;;;;;;;;;;;35.00;54.00;34.60;99594.00;;;;329472;29;94033;-85
2022/07/18 18:50:49;;;;;;;;;;;35.00;54.00;34.60;99596.00;;;;332706;29;82588;-85
2022/07/18 18:51:01;;;;;;;;;;;35.00;54.30;34.70;99590.00;;;;330464;29;93092;-85
2022/07/18 18:51:13;;;;;;;;;;;35.00;54.20;34.80;99591.00;;;;329068;29;82647;-85
2022/07/18 18:51:25;;;;;;;;;;;35.00;54.20;34.70;99588.00;;;;330864;29;93898;-85
2022/07/18 18:51:37;;;;;;;;;;;35.00;54.30;34.80;99592.00;;;;332706;29;83330;-85
2022/07/18 18:51:49;;;;;;;;;;;35.00;54.20;34.80;99584.00;;;;330613;29;91723;-85
2022/07/18 18:52:01;;;;;;;;;;;35.00;54.20;34.80;99593.00;;;;331887;29;83643;-84
2022/07/18 18:52:13;;;;;;;;;;;35.00;54.10;34.90;99597.00;;;;332982;29;93494;-84
2022/07/18 18:52:26;;;;;;;;;;;34.90;54.00;34.80;99589.00;;;;329885;29;83415;-85
2022/07/18 18:52:39;;;;;;;;;;;34.90;54.00;34.80;99589.00;;;;329570;29;93469;-85
2022/07/18 18:52:51;;;;;;;;;;;34.90;53.90;34.60;99591.00;;;;330068;29;83298;-85
2022/07/18 18:53:09;;;;;;;;;;;34.90;53.90;34.60;99592.00;;;;329007;29;94173;-85
2022/07/18 18:53:21;;;;;;;;;;;34.90;54.30;34.60;99589.00;;;;331200;29;83677;-85
2022/07/18 18:53:33;;;;;;;;;;;34.90;54.00;34.60;99584.00;;;;326839;29;97369;-85
2022/07/18 18:53:45;;;;;;;;;;;34.90;54.00;34.60;99587.00;;;;329942;29;83553;-85
2022/07/18 18:53:57;;;;;;;;;;;34.90;54.30;34.70;99591.00;;;;330683;29;93387;-84
2022/07/18 18:54:09;;;;;;;;;;;34.90;54.00;34.70;99588.00;;;;330705;29;82554;-85
2022/07/18 18:54:21;;;;;;;;;;;34.90;54.00;34.70;99589.00;;;;333314;29;94153;-85
2022/07/18 18:54:33;;;;;;;;;;;34.90;53.90;34.70;99584.00;;;;331421;29;83496;-85
2022/07/18 18:54:45;;;;;;;;;;;34.90;54.00;34.70;99589.00;;;;329366;29;94077;-86
2022/07/18 18:54:57;;;;;;;;;;;34.80;53.80;34.70;99585.00;;;;331451;29;82505;-85
2022/07/18 18:55:09;;;;;;;;;;;34.80;53.90;34.70;99593.00;;;;329304;29;94588;-85
2022/07/18 18:55:21;;;;;;;;;;;34.80;54.10;34.60;99591.00;;;;329861;29;83383;-85
2022/07/18 18:55:32;;;;;;;;;;;34.90;54.10;34.60;99589.00;;;;329829;29;94128;-85
2022/07/18 18:55:44;;;;;;;;;;;34.80;54.30;34.60;99596.00;;;;329698;29;83582;-85
2022/07/18 18:55:56;;;;;;;;;;;34.80;54.00;34.60;99591.00;;;;330851;29;93918;-85
2022/07/18 18:56:08;;;;;;;;;;;34.80;54.00;34.60;99581.00;;;;330363;29;83409;-85
2022/07/18 18:56:20;;;;;;;;;;;34.80;54.00;34.60;99592.00;;;;330678;29;96461;-85
2022/07/18 18:56:31;;;;;;;;;;;34.80;54.20;34.60;99590.00;;;;330240;29;83423;-85
2022/07/18 18:56:44;;;;;;;;;;;34.80;54.30;34.70;99588.00;;;;330674;29;94438;-85
2022/07/18 18:56:56;;;;;;;;;;;34.80;54.10;34.60;99595.00;;;;331194;29;83341;-85
2022/07/18 18:57:08;;;;;;;;;;;34.80;54.20;34.60;99592.00;;;;328869;29;94514;-86
2022/07/18 18:57:20;;;;;;;;;;;34.80;54.20;34.50;99598.00;;;;332243;29;83545;-84
2022/07/18 18:57:32;;;;;;;;;;;34.80;54.50;34.60;99588.00;;;;327942;29;94561;-85
2022/07/18 18:57:44;;;;;;;;;;;34.80;54.60;34.50;99586.00;;;;332159;29;83519;-85
2022/07/18 18:57:56;;;;;;;;;;;34.80;55.00;34.50;99591.00;;;;329477;29;93822;-85
2022/07/18 18:58:08;;;;;;;;;;;34.80;54.80;34.60;99596.00;;;;331518;29;83423;-84
2022/07/18 18:58:20;;;;;;;;;;;34.80;55.00;34.50;99594.00;;;;330626;29;94592;-85
2022/07/18 18:58:37;;;;;;;;;;;34.80;55.10;34.50;99597.00;;;;331361;29;83475;-85
2022/07/18 18:58:49;;;;;;;;;;;34.80;54.90;34.50;99599.00;;;;330381;29;93839;-85
2022/07/18 18:59:01;;;;;;;;;;;34.80;54.80;34.50;99589.00;;;;330719;29;83475;-85
2022/07/18 18:59:13;;;;;;;;;;;34.80;54.80;34.50;99585.00;;;;329501;29;97541;-83
2022/07/18 18:59:24;;;;;;;;;;;34.70;54.80;34.50;99590.00;;;;332970;29;82490;-85
2022/07/18 18:59:36;;;;;;;;;;;34.70;54.40;34.40;99590.00;;;;328389;29;97748;-85
2022/07/18 18:59:48;;;;;;;;;;;34.70;54.50;34.40;99591.00;;;;331531;29;83475;-85
2022/07/18 19:00:00;;;;;;;;;;;34.70;54.80;34.40;99597.00;;;;332485;29;95652;-85
2022/07/18 19:00:17;;;;;;;;;;;34.70;55.00;34.50;99595.00;;;;329978;29;83518;-85
2022/07/18 19:00:30;;;;;;;;;;;34.70;55.00;34.50;99591.00;;;;330622;29;93965;-85
2022/07/18 19:00:45;;;;;;;;;;;34.70;55.00;34.50;99593.00;;;;331434;29;83518;-86
2022/07/18 19:00:57;;;;;;;;;;;34.70;54.80;34.50;99597.00;;;;329421;29;94226;-85
2022/07/18 19:01:09;;;;;;;;;;;34.60;54.70;34.50;99587.00;;;;330272;29;82410;-85
2022/07/18 19:01:21;;;;;;;;;;;34.60;54.70;34.50;99588.00;;;;330401;29;95575;-85
2022/07/18 19:01:32;;;;;;;;;;;34.70;54.60;34.60;99592.00;;;;332295;29;83694;-85
2022/07/18 19:01:45;;;;;;;;;;;34.70;54.80;34.60;99590.00;;;;329701;29;95116;-85
2022/07/18 19:01:57;;;;;;;;;;;34.70;54.80;34.60;99586.00;;;;332476;29;83453;-84
2022/07/18 19:02:09;;;;;;;;;;;34.70;54.70;34.50;99586.00;;;;329127;29;96878;-85
2022/07/18 19:02:21;;;;;;;;;;;34.60;54.60;34.50;99583.00;;;;330167;29;83460;-85
2022/07/18 19:02:33;;;;;;;;;;;34.70;54.60;34.40;99587.00;;;;330689;29;93810;-85
2022/07/18 19:02:45;;;;;;;;;;;34.60;54.60;34.40;99588.00;;;;331367;29;83547;-85
2022/07/18 19:02:58;;;;;;;;;;;34.70;54.80;34.50;99585.00;;;;331563;29;94101;-84
2022/07/18 19:03:10;;;;;;;;;;;34.70;54.60;34.50;99594.00;;;;332140;29;83657;-85
2022/07/18 19:03:22;;;;;;;;;;;34.60;54.60;34.50;99587.00;;;;329294;29;92723;-85
2022/07/18 19:03:35;;;;;;;;;;;34.70;54.70;34.40;99587.00;;;;330219;29;82471;-85
2022/07/18 19:03:47;;;;;;;;;;;34.60;54.50;34.40;99588.00;;;;329341;29;94600;-85
2022/07/18 19:04:05;;;;;;;;;;;34.60;54.70;34.40;99592.00;;;;328842;29;83517;-85
2022/07/18 19:04:17;;;;;;;;;;;34.60;54.50;34.40;99591.00;;;;326634;29;92324;-85
2022/07/18 19:04:29;;;;;;;;;;;34.60;54.50;34.40;99580.00;;;;328975;29;82801;-85
2022/07/18 19:04:40;;;;;;;;;;;34.60;54.40;34.40;99583.00;;;;329800;29;95982;-85
2022/07/18 19:04:52;;;;;;;;;;;34.60;54.80;34.30;99588.00;;;;331881;29;82313;-85
2022/07/18 19:05:05;;;;;;;;;;;34.60;55.50;34.30;99587.00;;;;330962;29;96693;-85
2022/07/18 19:05:17;;;;;;;;;;;34.50;54.90;34.40;99583.00;;;;329426;29;83342;-85
2022/07/18 19:05:29;;;;;;;;;;;34.60;54.60;34.30;99582.00;;;;329817;29;97098;-85
2022/07/18 19:05:41;;;;;;;;;;;34.60;55.00;34.40;99587.00;;;;330438;29;82550;-84
2022/07/18 19:05:52;;;;;;;;;;;34.60;54.70;34.50;99585.00;;;;330638;29;95421;-85
2022/07/18 19:06:05;;;;;;;;;;;34.60;54.90;34.40;99590.00;;;;328382;29;83600;-85
2022/07/18 19:06:16;;;;;;;;;;;34.60;54.80;34.40;99586.00;;;;327976;29;93982;-85
2022/07/18 19:06:29;;;;;;;;;;;34.60;54.70;34.40;99576.00;;;;328875;29;83566;-84
2022/07/18 19:06:43;;;;;;;;;;;34.50;54.90;34.40;99589.00;;;;330706;29;94283;-85
2022/07/18 19:06:54;;;;;;;;;;;34.50;54.70;34.30;99588.00;;;;332831;29;82470;-85
2022/07/18 19:07:06;;;;;;;;;;;34.50;54.90;34.30;99586.00;;;;332169;29;93185;-85
2022/07/18 19:07:18;;;;;;;;;;;34.50;54.80;34.40;99577.00;;;;332795;29;83431;-85
2022/07/18 19:07:30;;;;;;;;;;;34.50;54.50;34.30;99582.00;;;;331666;29;96439;-85
2022/07/18 19:07:42;;;;;;;;;;;34.50;54.70;34.30;99583.00;;;;328633;29;83659;-85
2022/07/18 19:07:54;;;;;;;;;;;34.50;54.70;34.30;99582.00;;;;329425;29;96504;-85
2022/07/18 19:08:06;;;;;;;;;;;34.50;54.90;34.30;99585.00;;;;331603;29;83553;-85
2022/07/18 19:08:18;;;;;;;;;;;34.50;55.00;34.30;99578.00;;;;330749;29;95904;-85
2022/07/18 19:08:30;;;;;;;;;;;34.50;54.80;34.30;99587.00;;;;329157;29;83397;-85
2022/07/18 19:08:43;;;;;;;;;;;34.50;55.00;34.30;99578.00;;;;329595;29;94473;-85
2022/07/18 19:08:55;;;;;;;;;;;34.50;55.20;34.30;99579.00;;;;332859;29;83477;-84
2022/07/18 19:09:07;;;;;;;;;;;34.50;54.80;34.30;99580.00;;;;327988;29;95969;-85
2022/07/18 19:09:19;;;;;;;;;;;34.50;54.50;34.30;99580.00;;;;331756;29;83445;-85
2022/07/18 19:09:30;;;;;;;;;;;34.50;54.70;34.20;99582.00;;;;330903;29;96137;-85
2022/07/18 19:09:44;;;;;;;;;;;34.50;55.30;34.30;99583.00;;;;330297;29;83432;-85
2022/07/18 19:09:56;;;;;;;;;;;34.40;55.00;34.30;99582.00;;;;329583;29;94894;-85
2022/07/18 19:10:08;;;;;;;;;;;34.40;54.80;34.30;99585.00;;;;330296;29;83494;-85
2022/07/18 19:10:20;;;;;;;;;;;34.40;55.00;34.20;99585.00;;;;329449;29;96099;-85
2022/07/18 19:10:31;;;;;;;;;;;34.40;55.00;34.20;99587.00;;;;331176;29;82728;-85
2022/07/18 19:10:44;;;;;;;;;;;34.40;54.80;34.10;99585.00;;;;330205;29;93184;-85
2022/07/18 19:10:56;;;;;;;;;;;34.40;55.10;34.20;99580.00;;;;330416;29;83368;-85
2022/07/18 19:11:08;;;;;;;;;;;34.40;55.30;34.10;99578.00;;;;331352;29;94157;-85
2022/07/18 19:11:20;;;;;;;;;;;34.40;55.40;34.10;99587.00;;;;332009;29;82513;-85
2022/07/18 19:11:34;;;;;;;;;;;34.40;55.30;34.00;99582.00;;;;331636;29;96283;-85
2022/07/18 19:11:46;;;;;;;;;;;34.40;56.20;34.10;99579.00;;;;330120;29;82551;-85
2022/07/18 19:11:58;;;;;;;;;;;34.40;55.60;34.10;99580.00;;;;329259;29;93367;-85
2022/07/18 19:12:10;;;;;;;;;;;34.30;55.30;34.10;99577.00;;;;331272;29;83722;-85
2022/07/18 19:12:22;;;;;;;;;;;34.30;55.70;34.00;99583.00;;;;334058;29;91243;-85
2022/07/18 19:12:34;;;;;;;;;;;34.30;55.90;34.00;99589.00;;;;333828;29;83285;-85
2022/07/18 19:12:45;;;;;;;;;;;34.30;55.70;34.10;99580.00;;;;332621;29;92958;-85
2022/07/18 19:12:57;;;;;;;;;;;34.30;55.40;34.00;99587.00;;;;333621;29;84525;-85